sensor_id;sensor_type;location;lat;lon;timestamp;P1;durP1;ratioP1;P2;durP2;ratioP2
16039;SDS011;8124;48.634;8.120;2022-10-16T00:01:21;40.10;;;35.85;;
16039;SDS011;8124;48.634;8.120;2022-10-16T00:06:25;40.33;;;35.92;;
16039;SDS011;8124;48.634;8.120;2022-10-16T00:11:30;40.15;;;35.75;;
16039;SDS011;8124;48.634;8.120;2022-10-16T00:16:36;40.20;;;36.00;;
16039;SDS011;8124;48.634;8.120;2022-10-16T00:21:39;39.85;;;35.55;;
16039;SDS011;8124;48.634;8.120;2022-10-16T00:26:43;39.97;;;35.78;;
16039;SDS011;8124;48.634;8.120;2022-10-16T00:31:48;40.17;;;35.85;;
16039;SDS011;8124;48.634;8.120;2022-10-16T00:36:51;40.17;;;35.83;;
16039;SDS011;8124;48.634;8.120;2022-10-16T00:41:54;40.10;;;35.80;;
16039;SDS011;8124;48.634;8.120;2022-10-16T00:46:58;40.55;;;36.15;;
16039;SDS011;8124;48.634;8.120;2022-10-16T00:52:01;40.03;;;35.75;;
16039;SDS011;8124;48.634;8.120;2022-10-16T00:57:05;41.60;;;35.92;;
16039;SDS011;8124;48.634;8.120;2022-10-16T01:02:11;40.33;;;36.13;;
16039;SDS011;8124;48.634;8.120;2022-10-16T01:07:19;39.95;;;35.75;;
16039;SDS011;8124;48.634;8.120;2022-10-16T01:12:32;42.00;;;36.60;;
16039;SDS011;8124;48.634;8.120;2022-10-16T01:17:49;39.95;;;35.65;;
16039;SDS011;8124;48.634;8.120;2022-10-16T01:23:02;40.60;;;36.20;;
16039;SDS011;8124;48.634;8.120;2022-10-16T01:28:11;40.40;;;36.20;;
16039;SDS011;8124;48.634;8.120;2022-10-16T01:33:18;40.25;;;36.05;;
16039;SDS011;8124;48.634;8.120;2022-10-16T01:38:25;40.42;;;36.00;;
16039;SDS011;8124;48.634;8.120;2022-10-16T01:43:40;40.13;;;35.72;;
16039;SDS011;8124;48.634;8.120;2022-10-16T01:48:47;39.70;;;35.53;;
16039;SDS011;8124;48.634;8.120;2022-10-16T01:53:53;42.10;;;35.85;;
16039;SDS011;8124;48.634;8.120;2022-10-16T01:59:01;40.03;;;35.83;;
16039;SDS011;8124;48.634;8.120;2022-10-16T02:04:07;40.05;;;35.85;;
16039;SDS011;8124;48.634;8.120;2022-10-16T02:09:15;40.08;;;35.88;;
16039;SDS011;8124;48.634;8.120;2022-10-16T02:14:20;40.03;;;35.83;;
16039;SDS011;8124;48.634;8.120;2022-10-16T02:19:25;40.85;;;36.13;;
16039;SDS011;8124;48.634;8.120;2022-10-16T02:24:30;40.22;;;36.03;;
16039;SDS011;8124;48.634;8.120;2022-10-16T02:29:40;40.63;;;36.33;;
16039;SDS011;8124;48.634;8.120;2022-10-16T02:34:47;40.53;;;36.13;;
16039;SDS011;8124;48.634;8.120;2022-10-16T02:39:51;40.38;;;36.08;;
16039;SDS011;8124;48.634;8.120;2022-10-16T02:44:56;40.17;;;35.80;;
16039;SDS011;8124;48.634;8.120;2022-10-16T02:49:59;42.15;;;36.05;;
16039;SDS011;8124;48.634;8.120;2022-10-16T02:55:03;40.30;;;36.00;;
16039;SDS011;8124;48.634;8.120;2022-10-16T03:00:09;40.58;;;35.75;;
16039;SDS011;8124;48.634;8.120;2022-10-16T03:05:14;41.20;;;36.47;;
16039;SDS011;8124;48.634;8.120;2022-10-16T03:10:18;41.05;;;35.78;;
16039;SDS011;8124;48.634;8.120;2022-10-16T03:15:22;40.13;;;35.92;;
16039;SDS011;8124;48.634;8.120;2022-10-16T03:20:25;40.15;;;35.95;;
16039;SDS011;8124;48.634;8.120;2022-10-16T03:25:28;39.65;;;35.45;;
16039;SDS011;8124;48.634;8.120;2022-10-16T03:30:33;40.05;;;35.85;;
16039;SDS011;8124;48.634;8.120;2022-10-16T03:35:36;40.00;;;35.70;;
16039;SDS011;8124;48.634;8.120;2022-10-16T03:40:39;39.53;;;35.38;;
16039;SDS011;8124;48.634;8.120;2022-10-16T03:45:44;40.13;;;35.75;;
16039;SDS011;8124;48.634;8.120;2022-10-16T03:50:47;39.85;;;35.63;;
16039;SDS011;8124;48.634;8.120;2022-10-16T03:55:50;40.78;;;35.50;;
16039;SDS011;8124;48.634;8.120;2022-10-16T04:00:54;39.78;;;35.47;;
16039;SDS011;8124;48.634;8.120;2022-10-16T04:05:57;40.33;;;35.97;;
16039;SDS011;8124;48.634;8.120;2022-10-16T04:11:00;40.15;;;35.92;;
16039;SDS011;8124;48.634;8.120;2022-10-16T04:16:05;41.22;;;35.97;;
16039;SDS011;8124;48.634;8.120;2022-10-16T04:26:37;43.83;;;36.28;;
16039;SDS011;8124;48.634;8.120;2022-10-16T04:31:41;41.60;;;36.13;;
16039;SDS011;8124;48.634;8.120;2022-10-16T04:36:46;40.10;;;35.90;;
16039;SDS011;8124;48.634;8.120;2022-10-16T04:41:50;42.22;;;35.55;;
16039;SDS011;8124;48.634;8.120;2022-10-16T04:46:54;40.40;;;36.13;;
16039;SDS011;8124;48.634;8.120;2022-10-16T04:51:57;40.22;;;35.92;;
16039;SDS011;8124;48.634;8.120;2022-10-16T04:57:00;40.08;;;35.78;;
16039;SDS011;8124;48.634;8.120;2022-10-16T05:02:04;41.33;;;35.75;;
16039;SDS011;8124;48.634;8.120;2022-10-16T05:07:08;40.20;;;35.90;;
16039;SDS011;8124;48.634;8.120;2022-10-16T05:12:10;40.35;;;35.90;;
16039;SDS011;8124;48.634;8.120;2022-10-16T05:17:15;42.08;;;36.45;;
16039;SDS011;8124;48.634;8.120;2022-10-16T05:22:18;39.88;;;35.67;;
16039;SDS011;8124;48.634;8.120;2022-10-16T05:27:21;40.50;;;35.60;;
16039;SDS011;8124;48.634;8.120;2022-10-16T05:32:27;40.55;;;35.90;;
16039;SDS011;8124;48.634;8.120;2022-10-16T05:37:30;39.75;;;35.45;;
16039;SDS011;8124;48.634;8.120;2022-10-16T05:42:33;41.00;;;35.78;;
16039;SDS011;8124;48.634;8.120;2022-10-16T05:47:37;40.67;;;36.28;;
16039;SDS011;8124;48.634;8.120;2022-10-16T05:52:41;40.70;;;36.08;;
16039;SDS011;8124;48.634;8.120;2022-10-16T05:57:43;39.95;;;35.67;;
16039;SDS011;8124;48.634;8.120;2022-10-16T06:02:48;40.20;;;35.90;;
16039;SDS011;8124;48.634;8.120;2022-10-16T06:07:51;39.38;;;35.28;;
16039;SDS011;8124;48.634;8.120;2022-10-16T06:12:54;39.85;;;35.55;;
16039;SDS011;8124;48.634;8.120;2022-10-16T06:17:58;40.08;;;35.78;;
16039;SDS011;8124;48.634;8.120;2022-10-16T06:23:01;40.15;;;35.75;;
16039;SDS011;8124;48.634;8.120;2022-10-16T06:28:05;42.42;;;37.20;;
16039;SDS011;8124;48.634;8.120;2022-10-16T06:33:09;44.85;;;38.42;;
16039;SDS011;8124;48.634;8.120;2022-10-16T06:43:47;41.17;;;36.78;;
16039;SDS011;8124;48.634;8.120;2022-10-16T06:48:51;41.03;;;36.30;;
16039;SDS011;8124;48.634;8.120;2022-10-16T06:53:55;40.35;;;36.05;;
16039;SDS011;8124;48.634;8.120;2022-10-16T06:59:04;40.85;;;35.65;;
16039;SDS011;8124;48.634;8.120;2022-10-16T07:04:08;43.33;;;35.92;;
16039;SDS011;8124;48.634;8.120;2022-10-16T07:09:11;40.25;;;35.67;;
16039;SDS011;8124;48.634;8.120;2022-10-16T07:14:15;39.95;;;35.65;;
16039;SDS011;8124;48.634;8.120;2022-10-16T07:19:21;43.58;;;36.10;;
16039;SDS011;8124;48.634;8.120;2022-10-16T07:24:28;39.58;;;35.30;;
16039;SDS011;8124;48.634;8.120;2022-10-16T07:29:31;40.05;;;35.85;;
16039;SDS011;8124;48.634;8.120;2022-10-16T07:34:36;39.92;;;35.53;;
16039;SDS011;8124;48.634;8.120;2022-10-16T07:39:39;45.25;;;40.33;;
16039;SDS011;8124;48.634;8.120;2022-10-16T07:44:42;44.67;;;39.88;;
16039;SDS011;8124;48.634;8.120;2022-10-16T07:49:46;42.35;;;37.75;;
16039;SDS011;8124;48.634;8.120;2022-10-16T07:54:49;44.28;;;37.13;;
16039;SDS011;8124;48.634;8.120;2022-10-16T07:59:52;43.33;;;37.50;;
16039;SDS011;8124;48.634;8.120;2022-10-16T08:04:57;43.30;;;38.60;;
16039;SDS011;8124;48.634;8.120;2022-10-16T08:10:00;46.00;;;37.72;;
16039;SDS011;8124;48.634;8.120;2022-10-16T08:15:03;41.97;;;37.55;;
16039;SDS011;8124;48.634;8.120;2022-10-16T08:20:09;40.90;;;36.33;;
16039;SDS011;8124;48.634;8.120;2022-10-16T08:25:13;41.17;;;36.83;;
16039;SDS011;8124;48.634;8.120;2022-10-16T08:30:16;45.83;;;37.42;;
16039;SDS011;8124;48.634;8.120;2022-10-16T08:35:23;40.15;;;35.95;;
16039;SDS011;8124;48.634;8.120;2022-10-16T08:40:27;40.63;;;36.33;;
16039;SDS011;8124;48.634;8.120;2022-10-16T08:45:39;40.50;;;36.22;;
16039;SDS011;8124;48.634;8.120;2022-10-16T08:50:50;40.33;;;35.88;;
16039;SDS011;8124;48.634;8.120;2022-10-16T08:55:54;40.03;;;35.83;;
16039;SDS011;8124;48.634;8.120;2022-10-16T09:00:58;40.05;;;35.85;;
16039;SDS011;8124;48.634;8.120;2022-10-16T09:06:09;39.83;;;35.63;;
16039;SDS011;8124;48.634;8.120;2022-10-16T09:11:21;40.83;;;36.28;;
16039;SDS011;8124;48.634;8.120;2022-10-16T09:16:34;40.70;;;36.30;;
16039;SDS011;8124;48.634;8.120;2022-10-16T09:21:43;40.75;;;36.35;;
16039;SDS011;8124;48.634;8.120;2022-10-16T09:26:48;42.90;;;37.28;;
16039;SDS011;8124;48.634;8.120;2022-10-16T09:31:52;42.67;;;37.92;;
16039;SDS011;8124;48.634;8.120;2022-10-16T09:37:12;42.20;;;37.70;;
16039;SDS011;8124;48.634;8.120;2022-10-16T09:42:20;44.28;;;38.10;;
16039;SDS011;8124;48.634;8.120;2022-10-16T09:47:26;42.50;;;38.00;;
16039;SDS011;8124;48.634;8.120;2022-10-16T09:52:32;42.35;;;37.90;;
16039;SDS011;8124;48.634;8.120;2022-10-16T09:57:51;43.75;;;39.10;;
16039;SDS011;8124;48.634;8.120;2022-10-16T10:02:55;42.17;;;37.42;;
16039;SDS011;8124;48.634;8.120;2022-10-16T10:08:03;42.90;;;38.10;;
16039;SDS011;8124;48.634;8.120;2022-10-16T10:13:14;42.60;;;38.00;;
16039;SDS011;8124;48.634;8.120;2022-10-16T10:18:22;42.53;;;37.95;;
16039;SDS011;8124;48.634;8.120;2022-10-16T10:23:27;43.38;;;38.13;;
16039;SDS011;8124;48.634;8.120;2022-10-16T10:34:09;42.97;;;38.28;;
16039;SDS011;8124;48.634;8.120;2022-10-16T10:39:30;43.42;;;38.00;;
16039;SDS011;8124;48.634;8.120;2022-10-16T10:44:46;45.35;;;38.28;;
16039;SDS011;8124;48.634;8.120;2022-10-16T10:50:07;43.00;;;38.42;;
16039;SDS011;8124;48.634;8.120;2022-10-16T10:55:20;43.88;;;38.55;;
16039;SDS011;8124;48.634;8.120;2022-10-16T11:00:30;46.55;;;38.33;;
16039;SDS011;8124;48.634;8.120;2022-10-16T11:05:43;42.63;;;37.97;;
16039;SDS011;8124;48.634;8.120;2022-10-16T11:10:52;43.15;;;38.33;;
16039;SDS011;8124;48.634;8.120;2022-10-16T11:15:58;42.63;;;37.95;;
16039;SDS011;8124;48.634;8.120;2022-10-16T11:21:07;43.15;;;37.90;;
16039;SDS011;8124;48.634;8.120;2022-10-16T11:26:15;42.08;;;37.67;;
16039;SDS011;8124;48.634;8.120;2022-10-16T11:31:24;43.03;;;38.47;;
16039;SDS011;8124;48.634;8.120;2022-10-16T11:36:33;43.17;;;38.58;;
16039;SDS011;8124;48.634;8.120;2022-10-16T11:42:01;42.33;;;37.83;;
16039;SDS011;8124;48.634;8.120;2022-10-16T11:47:10;45.85;;;38.72;;
16039;SDS011;8124;48.634;8.120;2022-10-16T11:52:50;48.25;;;39.22;;
16039;SDS011;8124;48.634;8.120;2022-10-16T11:57:59;42.83;;;38.00;;
16039;SDS011;8124;48.634;8.120;2022-10-16T12:03:14;42.55;;;37.95;;
16039;SDS011;8124;48.634;8.120;2022-10-16T12:08:24;43.00;;;38.42;;
16039;SDS011;8124;48.634;8.120;2022-10-16T12:13:35;42.83;;;38.22;;
16039;SDS011;8124;48.634;8.120;2022-10-16T12:18:40;42.55;;;38.05;;
16039;SDS011;8124;48.634;8.120;2022-10-16T12:23:48;44.28;;;39.58;;
16039;SDS011;8124;48.634;8.120;2022-10-16T12:29:13;42.97;;;38.33;;
16039;SDS011;8124;48.634;8.120;2022-10-16T12:34:26;42.97;;;38.47;;
16039;SDS011;8124;48.634;8.120;2022-10-16T12:39:53;42.78;;;38.28;;
16039;SDS011;8124;48.634;8.120;2022-10-16T12:45:12;43.22;;;38.70;;
16039;SDS011;8124;48.634;8.120;2022-10-16T12:50:34;43.42;;;38.60;;
16039;SDS011;8124;48.634;8.120;2022-10-16T12:55:42;43.03;;;38.55;;
16039;SDS011;8124;48.634;8.120;2022-10-16T13:00:57;47.28;;;38.88;;
16039;SDS011;8124;48.634;8.120;2022-10-16T13:06:08;43.97;;;39.33;;
16039;SDS011;8124;48.634;8.120;2022-10-16T13:11:23;44.08;;;39.28;;
16039;SDS011;8124;48.634;8.120;2022-10-16T13:17:16;44.17;;;39.25;;
16039;SDS011;8124;48.634;8.120;2022-10-16T13:22:28;43.90;;;39.33;;
16039;SDS011;8124;48.634;8.120;2022-10-16T13:27:38;43.95;;;39.25;;
16039;SDS011;8124;48.634;8.120;2022-10-16T13:32:50;44.22;;;39.42;;
16039;SDS011;8124;48.634;8.120;2022-10-16T13:38:08;45.35;;;39.17;;
16039;SDS011;8124;48.634;8.120;2022-10-16T13:43:20;44.70;;;40.08;;
16039;SDS011;8124;48.634;8.120;2022-10-16T13:54:08;43.40;;;38.88;;
16039;SDS011;8124;48.634;8.120;2022-10-16T14:04:39;43.70;;;39.05;;
16039;SDS011;8124;48.634;8.120;2022-10-16T14:15:15;44.67;;;39.58;;
16039;SDS011;8124;48.634;8.120;2022-10-16T14:20:26;44.03;;;39.42;;
16039;SDS011;8124;48.634;8.120;2022-10-16T14:25:34;44.05;;;39.25;;
16039;SDS011;8124;48.634;8.120;2022-10-16T14:30:51;44.15;;;39.15;;
16039;SDS011;8124;48.634;8.120;2022-10-16T14:36:00;43.67;;;39.17;;
16039;SDS011;8124;48.634;8.120;2022-10-16T14:41:08;44.08;;;39.47;;
16039;SDS011;8124;48.634;8.120;2022-10-16T14:51:57;44.25;;;39.53;;
16039;SDS011;8124;48.634;8.120;2022-10-16T14:57:02;44.25;;;39.55;;
16039;SDS011;8124;48.634;8.120;2022-10-16T15:02:32;43.65;;;38.95;;
16039;SDS011;8124;48.634;8.120;2022-10-16T15:07:48;44.35;;;39.67;;
16039;SDS011;8124;48.634;8.120;2022-10-16T15:13:04;44.03;;;39.42;;
16039;SDS011;8124;48.634;8.120;2022-10-16T15:18:10;44.97;;;39.33;;
16039;SDS011;8124;48.634;8.120;2022-10-16T15:23:24;46.10;;;39.72;;
16039;SDS011;8124;48.634;8.120;2022-10-16T15:28:29;44.80;;;40.10;;
16039;SDS011;8124;48.634;8.120;2022-10-16T15:33:33;45.67;;;40.70;;
16039;SDS011;8124;48.634;8.120;2022-10-16T15:38:40;44.78;;;39.83;;
16039;SDS011;8124;48.634;8.120;2022-10-16T15:43:49;44.35;;;39.63;;
16039;SDS011;8124;48.634;8.120;2022-10-16T15:48:55;44.47;;;39.67;;
16039;SDS011;8124;48.634;8.120;2022-10-16T15:54:02;44.03;;;39.33;;
16039;SDS011;8124;48.634;8.120;2022-10-16T15:59:06;43.70;;;39.17;;
16039;SDS011;8124;48.634;8.120;2022-10-16T16:04:13;44.50;;;39.80;;
16039;SDS011;8124;48.634;8.120;2022-10-16T16:09:38;44.50;;;39.92;;
16039;SDS011;8124;48.634;8.120;2022-10-16T16:14:43;44.88;;;40.03;;
16039;SDS011;8124;48.634;8.120;2022-10-16T16:19:50;44.28;;;39.45;;
16039;SDS011;8124;48.634;8.120;2022-10-16T16:24:53;43.97;;;39.35;;
16039;SDS011;8124;48.634;8.120;2022-10-16T16:30:00;45.45;;;40.55;;
16039;SDS011;8124;48.634;8.120;2022-10-16T16:35:06;46.03;;;39.95;;
16039;SDS011;8124;48.634;8.120;2022-10-16T16:40:11;43.90;;;39.33;;
16039;SDS011;8124;48.634;8.120;2022-10-16T16:45:15;44.13;;;39.55;;
16039;SDS011;8124;48.634;8.120;2022-10-16T16:50:18;45.75;;;40.53;;
16039;SDS011;8124;48.634;8.120;2022-10-16T16:55:23;47.00;;;40.85;;
16039;SDS011;8124;48.634;8.120;2022-10-16T17:00:29;45.30;;;40.67;;
16039;SDS011;8124;48.634;8.120;2022-10-16T17:05:35;43.95;;;39.35;;
16039;SDS011;8124;48.634;8.120;2022-10-16T17:10:42;44.47;;;39.88;;
16039;SDS011;8124;48.634;8.120;2022-10-16T17:15:48;43.80;;;39.20;;
16039;SDS011;8124;48.634;8.120;2022-10-16T17:20:52;43.85;;;39.05;;
16039;SDS011;8124;48.634;8.120;2022-10-16T17:25:56;44.65;;;39.35;;
16039;SDS011;8124;48.634;8.120;2022-10-16T17:31:19;44.90;;;39.28;;
16039;SDS011;8124;48.634;8.120;2022-10-16T17:36:26;44.65;;;39.75;;
16039;SDS011;8124;48.634;8.120;2022-10-16T17:41:31;45.47;;;39.33;;
16039;SDS011;8124;48.634;8.120;2022-10-16T17:46:37;43.17;;;38.67;;
16039;SDS011;8124;48.634;8.120;2022-10-16T17:51:41;44.05;;;39.25;;
16039;SDS011;8124;48.634;8.120;2022-10-16T17:56:44;42.72;;;38.22;;
16039;SDS011;8124;48.634;8.120;2022-10-16T18:01:52;43.05;;;38.33;;
16039;SDS011;8124;48.634;8.120;2022-10-16T18:06:55;42.95;;;38.47;;
16039;SDS011;8124;48.634;8.120;2022-10-16T18:12:00;43.78;;;39.17;;
16039;SDS011;8124;48.634;8.120;2022-10-16T18:17:04;43.00;;;38.33;;
16039;SDS011;8124;48.634;8.120;2022-10-16T18:22:17;42.53;;;38.05;;
16039;SDS011;8124;48.634;8.120;2022-10-16T18:27:20;44.50;;;39.55;;
16039;SDS011;8124;48.634;8.120;2022-10-16T18:32:25;43.05;;;38.45;;
16039;SDS011;8124;48.634;8.120;2022-10-16T18:37:28;43.60;;;38.90;;
16039;SDS011;8124;48.634;8.120;2022-10-16T18:42:33;44.70;;;39.35;;
16039;SDS011;8124;48.634;8.120;2022-10-16T18:47:37;44.33;;;39.00;;
16039;SDS011;8124;48.634;8.120;2022-10-16T18:52:45;43.95;;;39.30;;
16039;SDS011;8124;48.634;8.120;2022-10-16T18:57:49;43.65;;;39.05;;
16039;SDS011;8124;48.634;8.120;2022-10-16T19:02:53;47.83;;;39.72;;
16039;SDS011;8124;48.634;8.120;2022-10-16T19:07:57;44.05;;;39.35;;
16039;SDS011;8124;48.634;8.120;2022-10-16T19:13:00;47.55;;;38.72;;
16039;SDS011;8124;48.634;8.120;2022-10-16T19:18:06;44.28;;;39.03;;
16039;SDS011;8124;48.634;8.120;2022-10-16T19:23:10;44.55;;;39.13;;
16039;SDS011;8124;48.634;8.120;2022-10-16T19:28:27;47.05;;;39.60;;
16039;SDS011;8124;48.634;8.120;2022-10-16T19:33:35;43.40;;;38.70;;
16039;SDS011;8124;48.634;8.120;2022-10-16T19:38:39;42.95;;;38.25;;
16039;SDS011;8124;48.634;8.120;2022-10-16T19:43:42;43.20;;;38.60;;
16039;SDS011;8124;48.634;8.120;2022-10-16T19:48:48;43.58;;;38.88;;
16039;SDS011;8124;48.634;8.120;2022-10-16T19:53:55;42.85;;;38.22;;
16039;SDS011;8124;48.634;8.120;2022-10-16T19:58:59;43.22;;;38.53;;
16039;SDS011;8124;48.634;8.120;2022-10-16T20:04:04;43.25;;;38.65;;
16039;SDS011;8124;48.634;8.120;2022-10-16T20:09:07;42.22;;;37.72;;
16039;SDS011;8124;48.634;8.120;2022-10-16T20:14:10;41.72;;;37.28;;
16039;SDS011;8124;48.634;8.120;2022-10-16T20:19:14;42.53;;;38.03;;
16039;SDS011;8124;48.634;8.120;2022-10-16T20:24:17;42.22;;;37.83;;
16039;SDS011;8124;48.634;8.120;2022-10-16T20:29:20;42.75;;;38.15;;
16039;SDS011;8124;48.634;8.120;2022-10-16T20:34:25;46.77;;;41.67;;
16039;SDS011;8124;48.634;8.120;2022-10-16T20:39:28;43.30;;;38.60;;
16039;SDS011;8124;48.634;8.120;2022-10-16T20:44:32;60.55;;;50.50;;
16039;SDS011;8124;48.634;8.120;2022-10-16T20:49:36;45.60;;;40.67;;
16039;SDS011;8124;48.634;8.120;2022-10-16T20:54:43;71.28;;;54.58;;
16039;SDS011;8124;48.634;8.120;2022-10-16T20:59:47;45.50;;;39.53;;
16039;SDS011;8124;48.634;8.120;2022-10-16T21:04:56;42.90;;;38.20;;
16039;SDS011;8124;48.634;8.120;2022-10-16T21:09:59;42.63;;;38.05;;
16039;SDS011;8124;48.634;8.120;2022-10-16T21:15:02;44.75;;;39.60;;
16039;SDS011;8124;48.634;8.120;2022-10-16T21:20:22;43.83;;;38.58;;
16039;SDS011;8124;48.634;8.120;2022-10-16T21:25:25;42.35;;;37.75;;
16039;SDS011;8124;48.634;8.120;2022-10-16T21:30:28;41.92;;;37.47;;
16039;SDS011;8124;48.634;8.120;2022-10-16T21:35:32;42.45;;;37.63;;
16039;SDS011;8124;48.634;8.120;2022-10-16T21:40:35;42.65;;;37.88;;
16039;SDS011;8124;48.634;8.120;2022-10-16T21:45:38;43.53;;;38.13;;
16039;SDS011;8124;48.634;8.120;2022-10-16T21:50:47;44.97;;;37.78;;
16039;SDS011;8124;48.634;8.120;2022-10-16T21:55:50;43.33;;;37.42;;
16039;SDS011;8124;48.634;8.120;2022-10-16T22:00:53;42.08;;;37.55;;
16039;SDS011;8124;48.634;8.120;2022-10-16T22:06:00;43.28;;;37.67;;
16039;SDS011;8124;48.634;8.120;2022-10-16T22:11:07;41.60;;;37.15;;
16039;SDS011;8124;48.634;8.120;2022-10-16T22:16:11;41.40;;;37.03;;
16039;SDS011;8124;48.634;8.120;2022-10-16T22:21:16;41.90;;;37.40;;
16039;SDS011;8124;48.634;8.120;2022-10-16T22:26:19;41.45;;;37.00;;
16039;SDS011;8124;48.634;8.120;2022-10-16T22:31:22;41.67;;;36.97;;
16039;SDS011;8124;48.634;8.120;2022-10-16T22:36:26;42.83;;;37.50;;
16039;SDS011;8124;48.634;8.120;2022-10-16T22:41:30;42.20;;;37.13;;
16039;SDS011;8124;48.634;8.120;2022-10-16T22:46:33;41.78;;;37.17;;
16039;SDS011;8124;48.634;8.120;2022-10-16T22:51:38;47.03;;;37.88;;
16039;SDS011;8124;48.634;8.120;2022-10-16T22:56:41;42.40;;;37.78;;
16039;SDS011;8124;48.634;8.120;2022-10-16T23:07:13;41.22;;;36.83;;
16039;SDS011;8124;48.634;8.120;2022-10-16T23:12:16;41.15;;;36.58;;
16039;SDS011;8124;48.634;8.120;2022-10-16T23:17:19;42.47;;;36.75;;
16039;SDS011;8124;48.634;8.120;2022-10-16T23:22:24;41.20;;;36.80;;
16039;SDS011;8124;48.634;8.120;2022-10-16T23:27:27;40.83;;;36.53;;
16039;SDS011;8124;48.634;8.120;2022-10-16T23:32:30;45.10;;;37.33;;
16039;SDS011;8124;48.634;8.120;2022-10-16T23:37:35;41.10;;;36.65;;
16039;SDS011;8124;48.634;8.120;2022-10-16T23:42:38;41.75;;;37.25;;
16039;SDS011;8124;48.634;8.120;2022-10-16T23:47:53;41.22;;;36.72;;
16039;SDS011;8124;48.634;8.120;2022-10-16T23:52:57;40.63;;;36.20;;
16039;SDS011;8124;48.634;8.120;2022-10-16T23:58:00;42.13;;;37.47;;
